»·PEaware :: N400LY KFUL-KGCN

N400LY :: KFUL-KGCN

FLIGHT INFORMATION

Flight Status: Arrived
Operator: Privately registered:
United States
More flights under this callsign
Pilot: Alethea M. (28491)
Aircraft: COLUMBIA 400
(COL4)
More flights by this aircraft type
Origin: KFUL Fullerton Mun
United States
Destination: KGCN Grand Canyon Natl Park
United States
More flights between these airports :: More routes between these airports
Route: PDZ TNP EED IGM PGS
File this flight plan on PilotEdge
Remarks:
Altitude:
(Current/Filed)
9,500ft
Speed:
(Current/Filed)
200kts
Departed: 06-Sep-22 05:10 PM
Arrived: 06-Sep-22 06:57 PM
Distance/Time
Traveled:
313nm/1:46
Distance/Time
To Go:
Arrived

Flight Plot

Page will automatically refresh every two minutes.

Flight plan parsing failed; only flown route is shown


Map Options




Map Legend


Flown Route
Filed Route
Departure Airport
Arrival Airport
Navaid (VOR, NDB)
Fix

Horizontal Profiles

Position Reports

Time Latitude Longitude Heading Altitude Ground
Speed
06-Sep-22 17:01 33.871298 -117.978944 74 95ft 0kts
06-Sep-22 17:02 33.871298 -117.978944 74 95ft 0kts
06-Sep-22 17:03 33.871298 -117.978944 74 95ft 0kts
06-Sep-22 17:04 33.871298 -117.978944 74 95ft 0kts
06-Sep-22 17:05 33.871594 -117.978899 350 95ft 0kts
06-Sep-22 17:06 33.872172 -117.976881 77 98ft 11kts
06-Sep-22 17:07 33.872565 -117.974868 32 99ft 0kts
06-Sep-22 17:08 33.872863 -117.974892 301 99ft 5kts
06-Sep-22 17:09 33.866570 -117.996026 210 760ft 112kts
06-Sep-22 17:10 33.849670 -117.976015 75 2487ft 127kts
06-Sep-22 17:11 33.859327 -117.933833 64 4151ft 133kts
06-Sep-22 17:12 33.878767 -117.896001 78 5855ft 129kts
06-Sep-22 17:13 33.884934 -117.853944 86 7517ft 127kts
06-Sep-22 17:14 33.889374 -117.811886 85 9127ft 128kts
06-Sep-22 17:15 33.894622 -117.760754 84 9512ft 186kts
06-Sep-22 17:16 33.901334 -117.695469 84 9453ft 198kts
06-Sep-22 17:17 33.907976 -117.630016 79 9451ft 197kts
06-Sep-22 17:18 33.914676 -117.564300 79 9451ft 197kts
06-Sep-22 17:19 33.916885 -117.497987 89 9454ft 200kts
06-Sep-22 17:20 33.914213 -117.431236 89 9458ft 200kts
06-Sep-22 17:21 33.911390 -117.364249 89 9461ft 200kts
06-Sep-22 17:22 33.908577 -117.297296 90 9475ft 200kts
06-Sep-22 17:23 33.905788 -117.230214 89 9487ft 200kts
06-Sep-22 17:24 33.902963 -117.163343 89 9500ft 200kts
06-Sep-22 17:25 33.900109 -117.096458 90 9510ft 200kts
06-Sep-22 17:26 33.897211 -117.029272 90 9515ft 202kts
06-Sep-22 17:27 33.894359 -116.961887 94 9519ft 199kts
06-Sep-22 17:28 33.891352 -116.896513 94 9590ft 194kts
06-Sep-22 17:29 33.888421 -116.831293 93 9576ft 196kts
06-Sep-22 17:30 33.885435 -116.765533 93 9550ft 197kts
06-Sep-22 17:31 33.882411 -116.699652 93 9525ft 198kts
06-Sep-22 17:32 33.879331 -116.633275 92 9499ft 199kts
06-Sep-22 17:33 33.876215 -116.566858 92 9498ft 198kts
06-Sep-22 17:34 33.873067 -116.500609 92 9497ft 198kts
06-Sep-22 17:35 33.870530 -116.434504 79 9477ft 199kts
06-Sep-22 17:36 33.890860 -116.372863 67 9493ft 198kts
06-Sep-22 17:37 33.913249 -116.311955 67 9481ft 199kts
06-Sep-22 17:38 33.935748 -116.250966 67 9478ft 198kts
06-Sep-22 17:39 33.956790 -116.193968 67 10492ft 181kts
06-Sep-22 17:40 33.977103 -116.138737 66 11379ft 181kts
06-Sep-22 17:41 33.998411 -116.080648 66 11546ft 195kts
06-Sep-22 17:42 34.020453 -116.020493 66 11578ft 196kts
06-Sep-22 17:43 34.042544 -115.960102 66 11608ft 196kts
06-Sep-22 17:44 34.064415 -115.900204 66 11637ft 195kts
06-Sep-22 17:45 34.086127 -115.840627 66 11663ft 194kts
06-Sep-22 17:46 34.107846 -115.780908 66 11664ft 194kts
06-Sep-22 17:47 34.135199 -115.724492 59 11663ft 194kts
06-Sep-22 17:48 34.163667 -115.668877 59 11663ft 194kts
06-Sep-22 17:49 34.192119 -115.613281 59 11663ft 194kts
06-Sep-22 17:50 34.220491 -115.557770 59 11663ft 194kts
06-Sep-22 17:51 34.248888 -115.502125 58 11663ft 194kts
06-Sep-22 17:52 34.277312 -115.446340 59 11663ft 194kts
06-Sep-22 17:53 34.306059 -115.389792 58 11486ft 200kts
06-Sep-22 17:54 34.336266 -115.330250 59 10809ft 219kts
06-Sep-22 17:55 34.370122 -115.263405 59 9683ft 215kts
06-Sep-22 17:56 34.400461 -115.203588 60 9531ft 208kts
06-Sep-22 17:57 34.430258 -115.144661 60 9526ft 202kts
06-Sep-22 17:58 34.459425 -115.086845 60 9526ft 200kts
06-Sep-22 17:59 34.488344 -115.029429 61 9526ft 199kts
06-Sep-22 18:00 34.516987 -114.972462 61 9526ft 198kts
06-Sep-22 18:01 34.545734 -114.915163 61 9526ft 198kts
06-Sep-22 18:02 34.574288 -114.858186 61 9526ft 198kts
06-Sep-22 18:03 34.602837 -114.801129 61 9526ft 198kts
06-Sep-22 18:04 34.631343 -114.744065 61 9526ft 198kts
06-Sep-22 18:05 34.659839 -114.686932 61 9525ft 198kts
06-Sep-22 18:06 34.688295 -114.629780 61 9525ft 198kts
06-Sep-22 18:07 34.716938 -114.572158 61 9524ft 198kts
06-Sep-22 18:08 34.745406 -114.514800 61 9525ft 197kts
06-Sep-22 18:09 34.777926 -114.461212 46 9524ft 201kts
06-Sep-22 18:10 34.819738 -114.415155 45 9082ft 221kts
06-Sep-22 18:11 34.855859 -114.375939 45 9545ft 211kts
06-Sep-22 18:12 34.898196 -114.330043 45 9518ft 206kts
06-Sep-22 18:13 34.941238 -114.283174 44 9513ft 210kts
06-Sep-22 18:14 34.985823 -114.234517 43 9255ft 221kts
06-Sep-22 18:15 35.030787 -114.185470 42 9295ft 214kts
06-Sep-22 18:16 35.074651 -114.137558 42 9372ft 210kts
06-Sep-22 18:17 35.119112 -114.088879 42 9442ft 210kts
06-Sep-22 18:18 35.162877 -114.040881 42 9486ft 211kts
06-Sep-22 18:19 35.206660 -113.992776 42 9499ft 212kts
06-Sep-22 18:20 35.250673 -113.944355 42 9498ft 213kts
06-Sep-22 18:21 35.280318 -113.882299 65 9499ft 212kts
06-Sep-22 18:22 35.306002 -113.817009 65 9499ft 213kts
06-Sep-22 18:23 35.331506 -113.751762 65 9499ft 213kts
06-Sep-22 18:24 35.357011 -113.686378 65 9499ft 213kts
06-Sep-22 18:25 35.382493 -113.620919 65 9499ft 213kts
06-Sep-22 18:26 35.407940 -113.555393 65 9500ft 213kts
06-Sep-22 18:27 35.433390 -113.489744 65 9500ft 213kts
06-Sep-22 18:28 35.458760 -113.424159 65 9499ft 213kts
06-Sep-22 18:29 35.484137 -113.358443 65 9500ft 213kts
06-Sep-22 18:30 35.509486 -113.292632 65 9498ft 212kts
06-Sep-22 18:31 35.534799 -113.227298 65 9549ft 210kts
06-Sep-22 18:32 35.560073 -113.162838 65 9622ft 208kts
06-Sep-22 18:33 35.584977 -113.099010 64 9695ft 206kts
06-Sep-22 18:34 35.609869 -113.035518 64 9768ft 206kts
06-Sep-22 18:35 35.634729 -112.971776 65 9774ft 207kts
06-Sep-22 18:36 35.659508 -112.908111 65 9769ft 206kts
06-Sep-22 18:37 35.684059 -112.844882 66 9766ft 204kts
06-Sep-22 18:38 35.708750 -112.782177 65 9765ft 203kts
06-Sep-22 18:39 35.732961 -112.719557 65 9765ft 202kts
06-Sep-22 18:40 35.757179 -112.656772 65 9555ft 212kts
06-Sep-22 18:41 35.782155 -112.591965 65 9480ft 205kts
06-Sep-22 18:42 35.806438 -112.528831 65 9480ft 203kts
06-Sep-22 18:43 35.830445 -112.466294 65 9481ft 202kts
06-Sep-22 18:44 35.854501 -112.403524 65 9480ft 201kts
06-Sep-22 18:45 35.877337 -112.343833 66 9469ft 171kts
06-Sep-22 18:46 35.895539 -112.296223 67 9205ft 140kts
06-Sep-22 18:47 35.913170 -112.249936 66 8169ft 148kts
06-Sep-22 18:48 35.930559 -112.204271 66 7577ft 140kts
06-Sep-22 18:49 35.951829 -112.163944 50 7607ft 135kts
06-Sep-22 18:50 35.973656 -112.130880 106 7065ft 95kts
06-Sep-22 18:51 35.951084 -112.148409 220 7421ft 137kts
06-Sep-22 18:52 35.948909 -112.181458 353 7314ft 132kts
06-Sep-22 18:53 35.975229 -112.155722 56 7289ft 122kts
06-Sep-22 18:54 35.979814 -112.126566 161 7225ft 100kts
06-Sep-22 18:55 35.959879 -112.139060 219 6609ft 67kts
06-Sep-22 18:56 35.953632 -112.144355 122 6583ft 0kts
06-Sep-22 18:57 35.954250 -112.143166 45 6587ft 0kts
06-Sep-22 18:58 35.954227 -112.142567 38 6593ft 0kts

Navigation Log

Ident Type
Flight plan parsing failed, navigation log unavailable